sensor_id;sensor_type;location;lat;lon;timestamp;pressure;altitude;pressure_sealevel;temperature;humidity
70841;BME280;58465;51.534;9.934;2022-09-09T00:06:24;99385.84;;;15.02;79.23
70841;BME280;58465;51.534;9.934;2022-09-09T00:11:46;99391.13;;;15.03;79.49
70841;BME280;58465;51.534;9.934;2022-09-09T00:14:34;99388.38;;;15.05;79.11
70841;BME280;58465;51.534;9.934;2022-09-09T00:17:06;99392.00;;;15.04;79.03
70841;BME280;58465;51.534;9.934;2022-09-09T00:19:47;99379.66;;;15.00;79.37
70841;BME280;58465;51.534;9.934;2022-09-09T00:22:25;99375.41;;;14.96;79.31
70841;BME280;58465;51.534;9.934;2022-09-09T00:24:54;99376.34;;;14.95;79.29
70841;BME280;58465;51.534;9.934;2022-09-09T00:27:51;99383.59;;;14.93;79.76
70841;BME280;58465;51.534;9.934;2022-09-09T00:30:22;99381.00;;;14.91;79.79
70841;BME280;58465;51.534;9.934;2022-09-09T00:32:51;99379.19;;;14.92;79.62
70841;BME280;58465;51.534;9.934;2022-09-09T00:35:27;99378.16;;;14.94;79.71
70841;BME280;58465;51.534;9.934;2022-09-09T00:37:57;99378.72;;;15.01;79.20
70841;BME280;58465;51.534;9.934;2022-09-09T00:40:33;99380.22;;;15.06;78.82
70841;BME280;58465;51.534;9.934;2022-09-09T00:43:18;99379.69;;;15.17;78.57
70841;BME280;58465;51.534;9.934;2022-09-09T00:49:24;99373.03;;;15.24;78.11
70841;BME280;58465;51.534;9.934;2022-09-09T00:54:10;99381.81;;;15.28;78.06
70841;BME280;58465;51.534;9.934;2022-09-09T00:56:51;99380.00;;;15.28;77.89
70841;BME280;58465;51.534;9.934;2022-09-09T00:59:32;99376.44;;;15.28;77.63
70841;BME280;58465;51.534;9.934;2022-09-09T01:02:02;99378.41;;;15.24;77.88
70841;BME280;58465;51.534;9.934;2022-09-09T01:04:36;99381.03;;;15.26;78.08
70841;BME280;58465;51.534;9.934;2022-09-09T01:07:15;99387.28;;;15.26;78.05
70841;BME280;58465;51.534;9.934;2022-09-09T01:09:57;99383.94;;;15.21;78.13
70841;BME280;58465;51.534;9.934;2022-09-09T01:12:47;99391.00;;;15.23;78.38
70841;BME280;58465;51.534;9.934;2022-09-09T01:15:21;99381.16;;;15.22;78.09
70841;BME280;58465;51.534;9.934;2022-09-09T01:18:10;99380.56;;;15.17;78.46
70841;BME280;58465;51.534;9.934;2022-09-09T01:26:19;99382.84;;;15.08;78.95
70841;BME280;58465;51.534;9.934;2022-09-09T01:28:48;99391.22;;;15.02;78.96
70841;BME280;58465;51.534;9.934;2022-09-09T01:31:21;99386.16;;;14.96;79.13
70841;BME280;58465;51.534;9.934;2022-09-09T01:33:48;99386.31;;;14.93;79.21
70841;BME280;58465;51.534;9.934;2022-09-09T01:36:19;99373.97;;;14.89;79.45
70841;BME280;58465;51.534;9.934;2022-09-09T01:38:46;99388.19;;;14.91;79.58
70841;BME280;58465;51.534;9.934;2022-09-09T01:41:12;99389.00;;;14.93;79.21
70841;BME280;58465;51.534;9.934;2022-09-09T01:43:37;99380.91;;;14.93;79.21
70841;BME280;58465;51.534;9.934;2022-09-09T01:46:03;99387.91;;;14.97;79.05
70841;BME280;58465;51.534;9.934;2022-09-09T01:48:29;99385.13;;;14.98;78.69
70841;BME280;58465;51.534;9.934;2022-09-09T01:50:55;99391.38;;;14.99;78.85
70841;BME280;58465;51.534;9.934;2022-09-09T01:53:22;99389.56;;;14.99;78.86
70841;BME280;58465;51.534;9.934;2022-09-09T01:56:19;99390.13;;;15.06;78.26
70841;BME280;58465;51.534;9.934;2022-09-09T01:59:03;99387.44;;;15.06;78.29
70841;BME280;58465;51.534;9.934;2022-09-09T02:06:59;99379.09;;;14.93;78.72
70841;BME280;58465;51.534;9.934;2022-09-09T02:09:26;99379.19;;;14.92;78.77
70841;BME280;58465;51.534;9.934;2022-09-09T02:12:01;99379.09;;;14.93;78.89
70841;BME280;58465;51.534;9.934;2022-09-09T02:14:36;99377.22;;;14.95;78.93
70841;BME280;58465;51.534;9.934;2022-09-09T02:17:09;99385.91;;;15.00;78.72
70841;BME280;58465;51.534;9.934;2022-09-09T02:19:40;99387.28;;;15.09;78.46
70841;BME280;58465;51.534;9.934;2022-09-09T02:22:08;99389.78;;;15.12;78.14
70841;BME280;58465;51.534;9.934;2022-09-09T02:24:36;99388.84;;;15.13;78.17
70841;BME280;58465;51.534;9.934;2022-09-09T02:27:04;99391.31;;;15.17;78.12
70841;BME280;58465;51.534;9.934;2022-09-09T02:29:34;99382.84;;;15.25;78.28
70841;BME280;58465;51.534;9.934;2022-09-09T02:32:04;99384.91;;;15.37;77.90
70841;BME280;58465;51.534;9.934;2022-09-09T02:34:33;99386.16;;;15.47;77.19
70841;BME280;58465;51.534;9.934;2022-09-09T02:37:03;99386.91;;;15.49;77.08
70841;BME280;58465;51.534;9.934;2022-09-09T02:39:29;99377.75;;;15.53;76.74
70841;BME280;58465;51.534;9.934;2022-09-09T02:41:55;99379.34;;;15.57;76.73
70841;BME280;58465;51.534;9.934;2022-09-09T02:44:21;99377.44;;;15.59;76.49
70841;BME280;58465;51.534;9.934;2022-09-09T02:49:43;99381.38;;;15.70;76.61
70841;BME280;58465;51.534;9.934;2022-09-09T02:52:18;99378.53;;;15.73;76.54
70841;BME280;58465;51.534;9.934;2022-09-09T02:54:48;99386.69;;;15.71;76.26
70841;BME280;58465;51.534;9.934;2022-09-09T02:57:27;99378.09;;;15.65;76.55
70841;BME280;58465;51.534;9.934;2022-09-09T02:59:59;99369.38;;;15.59;76.59
70841;BME280;58465;51.534;9.934;2022-09-09T03:02:25;99369.69;;;15.53;77.09
70841;BME280;58465;51.534;9.934;2022-09-09T03:04:51;99370.69;;;15.51;77.01
70841;BME280;58465;51.534;9.934;2022-09-09T03:07:17;99368.88;;;15.51;77.08
70841;BME280;58465;51.534;9.934;2022-09-09T03:09:43;99371.56;;;15.51;76.89
70841;BME280;58465;51.534;9.934;2022-09-09T03:12:09;99382.25;;;15.53;76.81
70841;BME280;58465;51.534;9.934;2022-09-09T03:14:36;99381.34;;;15.54;76.95
70841;BME280;58465;51.534;9.934;2022-09-09T03:17:04;99378.56;;;15.55;76.85
70841;BME280;58465;51.534;9.934;2022-09-09T03:19:29;99373.13;;;15.57;76.84
70841;BME280;58465;51.534;9.934;2022-09-09T03:21:55;99383.00;;;15.56;76.72
70841;BME280;58465;51.534;9.934;2022-09-09T03:24:20;99380.06;;;15.61;76.53
70841;BME280;58465;51.534;9.934;2022-09-09T03:26:48;99376.25;;;15.65;76.27
70841;BME280;58465;51.534;9.934;2022-09-09T03:29:13;99377.75;;;15.71;76.29
70841;BME280;58465;51.534;9.934;2022-09-09T03:31:40;99380.44;;;15.71;76.14
70841;BME280;58465;51.534;9.934;2022-09-09T03:34:05;99387.47;;;15.73;76.21
70841;BME280;58465;51.534;9.934;2022-09-09T03:36:31;99385.66;;;15.74;76.42
70841;BME280;58465;51.534;9.934;2022-09-09T03:38:56;99383.66;;;15.77;76.32
70841;BME280;58465;51.534;9.934;2022-09-09T03:41:23;99389.03;;;15.77;76.03
70841;BME280;58465;51.534;9.934;2022-09-09T03:43:50;99381.16;;;15.74;76.27
70841;BME280;58465;51.534;9.934;2022-09-09T03:46:16;99380.97;;;15.77;76.12
70841;BME280;58465;51.534;9.934;2022-09-09T03:48:42;99376.53;;;15.76;76.07
70841;BME280;58465;51.534;9.934;2022-09-09T03:51:07;99373.00;;;15.76;75.92
70841;BME280;58465;51.534;9.934;2022-09-09T03:53:32;99372.28;;;15.72;76.32
70841;BME280;58465;51.534;9.934;2022-09-09T03:55:58;99363.56;;;15.67;76.45
70841;BME280;58465;51.534;9.934;2022-09-09T03:58:26;99363.97;;;15.59;76.42
70841;BME280;58465;51.534;9.934;2022-09-09T04:00:56;99350.13;;;15.50;77.35
70841;BME280;58465;51.534;9.934;2022-09-09T04:03:22;99351.63;;;15.38;77.55
70841;BME280;58465;51.534;9.934;2022-09-09T04:05:49;99353.78;;;15.32;78.07
70841;BME280;58465;51.534;9.934;2022-09-09T04:08:15;99353.19;;;15.27;78.25
70841;BME280;58465;51.534;9.934;2022-09-09T04:10:40;99357.84;;;15.23;78.52
70841;BME280;58465;51.534;9.934;2022-09-09T04:13:07;99361.47;;;15.22;78.48
70841;BME280;58465;51.534;9.934;2022-09-09T04:15:32;99362.34;;;15.22;78.51
70841;BME280;58465;51.534;9.934;2022-09-09T04:17:58;99362.28;;;15.24;78.35
70841;BME280;58465;51.534;9.934;2022-09-09T04:20:23;99358.84;;;15.20;78.28
70841;BME280;58465;51.534;9.934;2022-09-09T04:22:48;99364.16;;;15.22;78.42
70841;BME280;58465;51.534;9.934;2022-09-09T04:25:14;99368.75;;;15.20;78.42
70841;BME280;58465;51.534;9.934;2022-09-09T04:27:40;99364.50;;;15.16;78.33
70841;BME280;58465;51.534;9.934;2022-09-09T04:30:06;99372.72;;;15.13;78.50
70841;BME280;58465;51.534;9.934;2022-09-09T04:32:33;99367.34;;;15.13;78.53
70841;BME280;58465;51.534;9.934;2022-09-09T04:34:58;99358.31;;;15.14;78.57
70841;BME280;58465;51.534;9.934;2022-09-09T04:37:24;99368.94;;;15.17;78.36
70841;BME280;58465;51.534;9.934;2022-09-09T04:39:50;99361.94;;;15.13;78.48
70841;BME280;58465;51.534;9.934;2022-09-09T04:42:15;99368.34;;;15.10;78.25
70841;BME280;58465;51.534;9.934;2022-09-09T04:44:42;99373.72;;;15.10;78.64
70841;BME280;58465;51.534;9.934;2022-09-09T04:47:07;99364.78;;;15.10;78.93
70841;BME280;58465;51.534;9.934;2022-09-09T04:49:33;99373.66;;;15.12;78.84
70841;BME280;58465;51.534;9.934;2022-09-09T04:51:58;99382.66;;;15.11;78.67
70841;BME280;58465;51.534;9.934;2022-09-09T04:54:23;99384.41;;;15.12;78.72
70841;BME280;58465;51.534;9.934;2022-09-09T04:56:52;99382.59;;;15.12;78.55
70841;BME280;58465;51.534;9.934;2022-09-09T04:59:17;99387.03;;;15.13;78.55
70841;BME280;58465;51.534;9.934;2022-09-09T05:01:42;99382.59;;;15.12;78.72
70841;BME280;58465;51.534;9.934;2022-09-09T05:04:08;99378.75;;;15.18;78.37
70841;BME280;58465;51.534;9.934;2022-09-09T05:06:34;99383.06;;;15.20;78.30
70841;BME280;58465;51.534;9.934;2022-09-09T05:09:01;99389.25;;;15.22;78.04
70841;BME280;58465;51.534;9.934;2022-09-09T05:11:28;99379.81;;;15.31;77.75
70841;BME280;58465;51.534;9.934;2022-09-09T05:13:55;99386.94;;;15.32;77.61
70841;BME280;58465;51.534;9.934;2022-09-09T05:16:21;99394.94;;;15.34;77.29
70841;BME280;58465;51.534;9.934;2022-09-09T05:18:47;99394.06;;;15.33;77.05
70841;BME280;58465;51.534;9.934;2022-09-09T05:21:18;99395.09;;;15.31;77.57
70841;BME280;58465;51.534;9.934;2022-09-09T05:23:45;99405.78;;;15.32;77.55
70841;BME280;58465;51.534;9.934;2022-09-09T05:26:20;99402.13;;;15.33;77.32
70841;BME280;58465;51.534;9.934;2022-09-09T05:28:46;99402.13;;;15.33;77.54
70841;BME280;58465;51.534;9.934;2022-09-09T05:31:13;99401.28;;;15.33;77.58
70841;BME280;58465;51.534;9.934;2022-09-09T05:33:40;99401.81;;;15.39;77.33
70841;BME280;58465;51.534;9.934;2022-09-09T05:36:08;99400.88;;;15.40;77.57
70841;BME280;58465;51.534;9.934;2022-09-09T05:38:35;99402.53;;;15.43;77.44
70841;BME280;58465;51.534;9.934;2022-09-09T05:41:02;99396.06;;;15.47;77.26
70841;BME280;58465;51.534;9.934;2022-09-09T05:43:28;99403.88;;;15.51;77.03
70841;BME280;58465;51.534;9.934;2022-09-09T05:46:01;99415.31;;;15.56;76.69
70841;BME280;58465;51.534;9.934;2022-09-09T05:48:28;99404.28;;;15.61;76.38
70841;BME280;58465;51.534;9.934;2022-09-09T05:50:55;99394.38;;;15.62;76.40
70841;BME280;58465;51.534;9.934;2022-09-09T05:53:20;99391.53;;;15.65;76.09
70841;BME280;58465;51.534;9.934;2022-09-09T05:55:45;99403.78;;;15.70;76.19
70841;BME280;58465;51.534;9.934;2022-09-09T05:58:11;99405.19;;;15.77;76.20
70841;BME280;58465;51.534;9.934;2022-09-09T06:00:36;99399.50;;;15.83;75.82
70841;BME280;58465;51.534;9.934;2022-09-09T06:03:02;99399.22;;;15.88;75.58
70841;BME280;58465;51.534;9.934;2022-09-09T06:05:28;99409.69;;;15.94;75.31
70841;BME280;58465;51.534;9.934;2022-09-09T06:07:55;99411.25;;;15.98;75.30
70841;BME280;58465;51.534;9.934;2022-09-09T06:10:21;99417.41;;;16.00;75.27
70841;BME280;58465;51.534;9.934;2022-09-09T06:12:46;99424.56;;;16.01;75.26
70841;BME280;58465;51.534;9.934;2022-09-09T06:15:12;99423.53;;;16.04;75.12
70841;BME280;58465;51.534;9.934;2022-09-09T06:17:37;99421.44;;;16.09;75.01
70841;BME280;58465;51.534;9.934;2022-09-09T06:20:04;99429.16;;;16.15;74.90
70841;BME280;58465;51.534;9.934;2022-09-09T06:22:30;99415.69;;;16.15;74.88
70841;BME280;58465;51.534;9.934;2022-09-09T06:24:55;99416.94;;;16.25;74.43
70841;BME280;58465;51.534;9.934;2022-09-09T06:27:20;99415.66;;;16.32;74.33
70841;BME280;58465;51.534;9.934;2022-09-09T06:29:46;99419.75;;;16.39;74.04
70841;BME280;58465;51.534;9.934;2022-09-09T06:32:11;99423.91;;;16.45;74.11
70841;BME280;58465;51.534;9.934;2022-09-09T06:34:36;99418.19;;;16.51;73.80
70841;BME280;58465;51.534;9.934;2022-09-09T06:37:02;99424.16;;;16.56;73.36
70841;BME280;58465;51.534;9.934;2022-09-09T06:39:27;99420.34;;;16.60;73.54
70841;BME280;58465;51.534;9.934;2022-09-09T06:41:53;99422.06;;;16.62;73.24
70841;BME280;58465;51.534;9.934;2022-09-09T06:44:19;99419.56;;;16.74;73.11
70841;BME280;58465;51.534;9.934;2022-09-09T06:46:44;99421.50;;;16.87;72.73
70841;BME280;58465;51.534;9.934;2022-09-09T06:49:12;99427.69;;;16.89;72.69
70841;BME280;58465;51.534;9.934;2022-09-09T06:51:38;99431.84;;;16.95;72.38
70841;BME280;58465;51.534;9.934;2022-09-09T06:54:08;99428.84;;;17.15;71.68
70841;BME280;58465;51.534;9.934;2022-09-09T06:56:35;99428.16;;;17.41;70.93
70841;BME280;58465;51.534;9.934;2022-09-09T06:59:03;99419.59;;;17.49;69.67
70841;BME280;58465;51.534;9.934;2022-09-09T07:01:32;99418.81;;;17.47;69.97
70841;BME280;58465;51.534;9.934;2022-09-09T07:03:58;99424.31;;;17.46;70.17
70841;BME280;58465;51.534;9.934;2022-09-09T07:06:29;99428.72;;;17.62;69.33
70841;BME280;58465;51.534;9.934;2022-09-09T07:08:56;99422.38;;;17.77;68.47
70841;BME280;58465;51.534;9.934;2022-09-09T07:11:25;99422.00;;;17.98;67.34
70841;BME280;58465;51.534;9.934;2022-09-09T07:13:52;99430.69;;;18.17;67.18
70841;BME280;58465;51.534;9.934;2022-09-09T07:16:19;99423.25;;;18.35;66.36
70841;BME280;58465;51.534;9.934;2022-09-09T07:18:45;99421.56;;;18.46;66.37
70841;BME280;58465;51.534;9.934;2022-09-09T07:21:13;99430.06;;;18.83;65.42
70841;BME280;58465;51.534;9.934;2022-09-09T07:23:40;99429.06;;;19.11;64.35
70841;BME280;58465;51.534;9.934;2022-09-09T07:26:09;99434.78;;;19.46;63.42
70841;BME280;58465;51.534;9.934;2022-09-09T07:28:35;99439.75;;;19.91;61.64
70841;BME280;58465;51.534;9.934;2022-09-09T07:31:02;99434.88;;;20.09;60.77
70841;BME280;58465;51.534;9.934;2022-09-09T07:33:29;99423.91;;;20.23;60.13
70841;BME280;58465;51.534;9.934;2022-09-09T07:36:09;99432.06;;;19.85;61.24
70841;BME280;58465;51.534;9.934;2022-09-09T07:38:57;99435.53;;;19.35;62.44
70841;BME280;58465;51.534;9.934;2022-09-09T07:41:48;99429.13;;;19.36;62.96
70841;BME280;58465;51.534;9.934;2022-09-09T07:44:18;99436.63;;;19.85;62.86
70841;BME280;58465;51.534;9.934;2022-09-09T07:46:46;99430.31;;;20.10;61.22
70841;BME280;58465;51.534;9.934;2022-09-09T07:49:13;99438.75;;;20.92;59.60
70841;BME280;58465;51.534;9.934;2022-09-09T07:51:41;99434.13;;;21.18;57.32
70841;BME280;58465;51.534;9.934;2022-09-09T07:54:10;99439.50;;;21.31;58.26
70841;BME280;58465;51.534;9.934;2022-09-09T07:56:37;99431.50;;;21.40;57.41
70841;BME280;58465;51.534;9.934;2022-09-09T07:59:03;99446.41;;;21.11;57.75
70841;BME280;58465;51.534;9.934;2022-09-09T08:01:42;99438.97;;;20.53;59.00
70841;BME280;58465;51.534;9.934;2022-09-09T08:04:17;99443.31;;;20.30;60.22
70841;BME280;58465;51.534;9.934;2022-09-09T08:06:46;99448.00;;;20.41;59.74
70841;BME280;58465;51.534;9.934;2022-09-09T08:09:12;99442.84;;;20.74;59.64
70841;BME280;58465;51.534;9.934;2022-09-09T08:11:39;99447.28;;;21.35;57.93
70841;BME280;58465;51.534;9.934;2022-09-09T08:14:06;99445.75;;;21.90;56.60
70841;BME280;58465;51.534;9.934;2022-09-09T08:16:36;99443.41;;;21.97;55.81
70841;BME280;58465;51.534;9.934;2022-09-09T08:19:02;99443.81;;;22.14;55.36
70841;BME280;58465;51.534;9.934;2022-09-09T08:21:30;99444.69;;;22.15;55.72
70841;BME280;58465;51.534;9.934;2022-09-09T08:23:58;99441.34;;;22.23;55.75
70841;BME280;58465;51.534;9.934;2022-09-09T08:26:26;99436.91;;;22.10;55.69
70841;BME280;58465;51.534;9.934;2022-09-09T08:28:55;99433.28;;;21.64;56.47
70841;BME280;58465;51.534;9.934;2022-09-09T08:31:24;99439.22;;;21.23;57.48
70841;BME280;58465;51.534;9.934;2022-09-09T08:33:49;99440.59;;;20.92;57.95
70841;BME280;58465;51.534;9.934;2022-09-09T08:36:17;99440.44;;;20.82;58.76
70841;BME280;58465;51.534;9.934;2022-09-09T08:38:43;99445.88;;;20.69;58.63
70841;BME280;58465;51.534;9.934;2022-09-09T08:44:04;99450.25;;;20.96;58.41
70841;BME280;58465;51.534;9.934;2022-09-09T08:53:18;99453.06;;;21.31;56.45
70841;BME280;58465;51.534;9.934;2022-09-09T08:58:20;99471.75;;;20.99;56.97
70841;BME280;58465;51.534;9.934;2022-09-09T09:03:43;99480.19;;;20.70;58.46
70841;BME280;58465;51.534;9.934;2022-09-09T09:09:11;99465.47;;;20.86;58.06
70841;BME280;58465;51.534;9.934;2022-09-09T09:11:46;99470.31;;;20.69;58.86
70841;BME280;58465;51.534;9.934;2022-09-09T09:14:24;99467.66;;;20.44;59.29
70841;BME280;58465;51.534;9.934;2022-09-09T09:17:05;99461.47;;;20.42;59.57
70841;BME280;58465;51.534;9.934;2022-09-09T09:19:35;99466.88;;;20.42;59.98
70841;BME280;58465;51.534;9.934;2022-09-09T09:24:52;99464.28;;;20.41;59.65
70841;BME280;58465;51.534;9.934;2022-09-09T09:27:30;99465.34;;;20.38;59.76
70841;BME280;58465;51.534;9.934;2022-09-09T09:29:58;99454.41;;;20.14;59.81
70841;BME280;58465;51.534;9.934;2022-09-09T09:32:26;99462.66;;;20.25;60.28
70841;BME280;58465;51.534;9.934;2022-09-09T09:34:56;99460.00;;;20.62;59.02
70841;BME280;58465;51.534;9.934;2022-09-09T09:37:26;99459.81;;;21.25;57.24
70841;BME280;58465;51.534;9.934;2022-09-09T09:39:53;99465.28;;;21.60;56.19
70841;BME280;58465;51.534;9.934;2022-09-09T09:42:19;99456.88;;;21.52;55.53
70841;BME280;58465;51.534;9.934;2022-09-09T09:44:44;99449.47;;;21.65;55.32
70841;BME280;58465;51.534;9.934;2022-09-09T09:47:17;99446.78;;;22.00;54.24
70841;BME280;58465;51.534;9.934;2022-09-09T09:49:57;99449.03;;;22.29;53.84
70841;BME280;58465;51.534;9.934;2022-09-09T09:52:33;99439.34;;;22.69;52.72
70841;BME280;58465;51.534;9.934;2022-09-09T09:55:03;99440.09;;;22.60;51.49
70841;BME280;58465;51.534;9.934;2022-09-09T09:57:30;99441.47;;;22.32;52.67
70841;BME280;58465;51.534;9.934;2022-09-09T10:00:20;99431.75;;;21.95;52.80
70841;BME280;58465;51.534;9.934;2022-09-09T10:02:46;99445.03;;;21.99;53.67
70841;BME280;58465;51.534;9.934;2022-09-09T10:05:17;99436.91;;;22.10;52.98
70841;BME280;58465;51.534;9.934;2022-09-09T10:07:43;99441.84;;;22.16;53.25
70841;BME280;58465;51.534;9.934;2022-09-09T10:10:15;99442.22;;;22.23;52.82
70841;BME280;58465;51.534;9.934;2022-09-09T10:13:19;99442.22;;;22.23;52.44
70841;BME280;58465;51.534;9.934;2022-09-09T10:16:01;99438.47;;;22.69;51.83
70841;BME280;58465;51.534;9.934;2022-09-09T10:18:47;99432.88;;;23.15;51.13
70841;BME280;58465;51.534;9.934;2022-09-09T10:21:38;99427.25;;;23.59;49.26
70841;BME280;58465;51.534;9.934;2022-09-09T10:30:22;99431.44;;;24.05;45.99
70841;BME280;58465;51.534;9.934;2022-09-09T10:32:57;99431.78;;;23.70;46.91
70841;BME280;58465;51.534;9.934;2022-09-09T10:35:34;99417.75;;;23.75;46.64
70841;BME280;58465;51.534;9.934;2022-09-09T10:40:31;99418.75;;;23.74;46.41
70841;BME280;58465;51.534;9.934;2022-09-09T10:46:03;99419.09;;;23.48;47.50
70841;BME280;58465;51.534;9.934;2022-09-09T10:57:28;99398.44;;;23.14;46.79
70841;BME280;58465;51.534;9.934;2022-09-09T10:59:58;99402.28;;;23.43;46.91
70841;BME280;58465;51.534;9.934;2022-09-09T11:02:30;99407.25;;;23.70;45.82
70841;BME280;58465;51.534;9.934;2022-09-09T11:05:04;99395.72;;;23.66;45.58
70841;BME280;58465;51.534;9.934;2022-09-09T11:07:39;99390.59;;;23.94;44.44
70841;BME280;58465;51.534;9.934;2022-09-09T11:10:18;99391.44;;;24.15;44.82
70841;BME280;58465;51.534;9.934;2022-09-09T11:12:49;99388.44;;;24.18;43.49
70841;BME280;58465;51.534;9.934;2022-09-09T11:15:40;99391.78;;;24.62;43.09
70841;BME280;58465;51.534;9.934;2022-09-09T11:18:11;99392.19;;;24.97;42.97
70841;BME280;58465;51.534;9.934;2022-09-09T11:20:39;99399.09;;;25.11;42.47
70841;BME280;58465;51.534;9.934;2022-09-09T11:23:11;99385.16;;;25.24;42.31
70841;BME280;58465;51.534;9.934;2022-09-09T11:25:45;99393.25;;;24.75;43.22
70841;BME280;58465;51.534;9.934;2022-09-09T11:28:53;99390.53;;;24.35;42.32
70841;BME280;58465;51.534;9.934;2022-09-09T11:39:26;99384.56;;;24.51;42.50
70841;BME280;58465;51.534;9.934;2022-09-09T11:42:25;99382.84;;;24.50;39.45
70841;BME280;58465;51.534;9.934;2022-09-09T11:44:51;99386.06;;;24.65;40.16
70841;BME280;58465;51.534;9.934;2022-09-09T11:49:46;99377.06;;;26.36;37.59
70841;BME280;58465;51.534;9.934;2022-09-09T11:52:39;99374.50;;;26.25;37.14
70841;BME280;58465;51.534;9.934;2022-09-09T11:55:24;99364.84;;;25.94;37.24
70841;BME280;58465;51.534;9.934;2022-09-09T11:58:16;99373.75;;;26.42;36.35
70841;BME280;58465;51.534;9.934;2022-09-09T12:00:47;99376.50;;;26.87;35.21
70841;BME280;58465;51.534;9.934;2022-09-09T12:03:50;99380.88;;;27.61;32.96
70841;BME280;58465;51.534;9.934;2022-09-09T12:06:30;99366.19;;;26.81;33.87
70841;BME280;58465;51.534;9.934;2022-09-09T12:09:06;99367.44;;;26.87;33.87
70841;BME280;58465;51.534;9.934;2022-09-09T12:11:33;99381.59;;;27.45;34.04
70841;BME280;58465;51.534;9.934;2022-09-09T12:13:59;99377.19;;;27.34;32.83
70841;BME280;58465;51.534;9.934;2022-09-09T12:16:38;99375.53;;;26.61;34.57
70841;BME280;58465;51.534;9.934;2022-09-09T12:19:18;99371.88;;;26.98;33.72
70841;BME280;58465;51.534;9.934;2022-09-09T12:21:53;99374.59;;;25.96;35.34
70841;BME280;58465;51.534;9.934;2022-09-09T12:24:29;99372.97;;;25.66;36.19
70841;BME280;58465;51.534;9.934;2022-09-09T12:30:04;99385.06;;;27.29;33.46
70841;BME280;58465;51.534;9.934;2022-09-09T12:32:33;99387.84;;;26.75;34.20
70841;BME280;58465;51.534;9.934;2022-09-09T12:35:09;99383.97;;;25.94;36.21
70841;BME280;58465;51.534;9.934;2022-09-09T12:37:50;99386.75;;;25.55;36.66
70841;BME280;58465;51.534;9.934;2022-09-09T12:40:28;99370.63;;;25.33;37.06
70841;BME280;58465;51.534;9.934;2022-09-09T12:42:54;99378.09;;;24.92;37.91
70841;BME280;58465;51.534;9.934;2022-09-09T12:45:26;99376.91;;;24.85;38.24
70841;BME280;58465;51.534;9.934;2022-09-09T12:50:27;99375.25;;;24.63;38.58
70841;BME280;58465;51.534;9.934;2022-09-09T12:52:55;99372.25;;;24.57;38.64
70841;BME280;58465;51.534;9.934;2022-09-09T12:55:25;99364.56;;;24.11;39.94
70841;BME280;58465;51.534;9.934;2022-09-09T12:57:52;99374.91;;;23.65;42.01
70841;BME280;58465;51.534;9.934;2022-09-09T13:00:20;99368.72;;;23.11;44.49
70841;BME280;58465;51.534;9.934;2022-09-09T13:02:55;99373.84;;;23.04;44.71
70841;BME280;58465;51.534;9.934;2022-09-09T13:05:38;99383.13;;;23.02;44.08
70841;BME280;58465;51.534;9.934;2022-09-09T13:08:09;99385.31;;;23.08;43.60
70841;BME280;58465;51.534;9.934;2022-09-09T13:10:39;99385.91;;;23.22;42.54
70841;BME280;58465;51.534;9.934;2022-09-09T13:13:17;99382.78;;;23.27;41.88
70841;BME280;58465;51.534;9.934;2022-09-09T13:15:56;99375.81;;;23.34;40.81
70841;BME280;58465;51.534;9.934;2022-09-09T13:18:28;99381.53;;;23.31;41.29
70841;BME280;58465;51.534;9.934;2022-09-09T13:20:55;99386.81;;;23.44;41.24
70841;BME280;58465;51.534;9.934;2022-09-09T13:23:27;99385.31;;;23.40;41.47
70841;BME280;58465;51.534;9.934;2022-09-09T13:25:55;99379.63;;;23.11;41.38
70841;BME280;58465;51.534;9.934;2022-09-09T13:28:23;99381.94;;;22.94;41.61
70841;BME280;58465;51.534;9.934;2022-09-09T13:31:03;99373.03;;;22.70;41.66
70841;BME280;58465;51.534;9.934;2022-09-09T13:33:35;99375.63;;;22.72;41.69
70841;BME280;58465;51.534;9.934;2022-09-09T13:36:03;99373.66;;;22.85;41.67
70841;BME280;58465;51.534;9.934;2022-09-09T13:38:32;99370.13;;;23.05;41.64
70841;BME280;58465;51.534;9.934;2022-09-09T13:41:05;99372.41;;;23.21;41.61
70841;BME280;58465;51.534;9.934;2022-09-09T13:43:38;99365.41;;;23.07;42.46
70841;BME280;58465;51.534;9.934;2022-09-09T13:51:43;99373.41;;;23.20;43.19
70841;BME280;58465;51.534;9.934;2022-09-09T13:54:15;99369.38;;;23.03;43.59
70841;BME280;58465;51.534;9.934;2022-09-09T13:56:41;99365.97;;;22.90;44.34
70841;BME280;58465;51.534;9.934;2022-09-09T13:59:13;99370.28;;;22.92;44.64
70841;BME280;58465;51.534;9.934;2022-09-09T14:01:38;99368.34;;;23.15;44.03
70841;BME280;58465;51.534;9.934;2022-09-09T14:04:04;99372.03;;;23.46;43.54
70841;BME280;58465;51.534;9.934;2022-09-09T14:06:33;99370.13;;;23.79;42.71
70841;BME280;58465;51.534;9.934;2022-09-09T14:09:00;99373.25;;;23.74;43.14
70841;BME280;58465;51.534;9.934;2022-09-09T14:11:25;99367.72;;;23.64;43.01
70841;BME280;58465;51.534;9.934;2022-09-09T14:13:51;99370.69;;;23.73;42.75
70841;BME280;58465;51.534;9.934;2022-09-09T14:16:17;99365.81;;;23.76;42.60
70841;BME280;58465;51.534;9.934;2022-09-09T14:18:43;99353.66;;;24.11;41.78
70841;BME280;58465;51.534;9.934;2022-09-09T14:21:09;99361.88;;;24.51;40.53
70841;BME280;58465;51.534;9.934;2022-09-09T14:23:34;99359.66;;;24.85;39.57
70841;BME280;58465;51.534;9.934;2022-09-09T14:25:59;99360.50;;;24.85;39.21
70841;BME280;58465;51.534;9.934;2022-09-09T14:28:25;99354.66;;;24.99;38.09
70841;BME280;58465;51.534;9.934;2022-09-09T14:30:50;99355.59;;;24.60;39.06
70841;BME280;58465;51.534;9.934;2022-09-09T14:33:16;99341.28;;;24.07;40.16
70841;BME280;58465;51.534;9.934;2022-09-09T14:35:42;99348.47;;;23.56;41.11
70841;BME280;58465;51.534;9.934;2022-09-09T14:38:09;99339.50;;;23.13;41.54
70841;BME280;58465;51.534;9.934;2022-09-09T14:40:36;99339.97;;;22.97;41.94
70841;BME280;58465;51.534;9.934;2022-09-09T14:43:02;99331.78;;;22.97;42.15
70841;BME280;58465;51.534;9.934;2022-09-09T14:45:27;99336.16;;;23.09;41.71
70841;BME280;58465;51.534;9.934;2022-09-09T14:47:53;99334.19;;;23.11;41.60